Time;durP1;ratioP1;P1;durP2;ratioP2;P2;SDS_P1;SDS_P2;PMS_P1;PMS_P2;Temp;Humidity;BMP_temperature;BMP_pressure;BME280_temperature;BME280_humidity;BME280_pressure;Samples;Min_cycle;Max_cycle;Signal;HPM_P1;HPM_P2
2022/04/18 00:00:46;;;;;;;3.13;2.50;;;12.90;39.80;;;;;;4957322;28;20263;-88
2022/04/18 00:03:11;;;;;;;3.20;2.30;;;12.90;40.10;;;;;;4960267;28;20572;-86
2022/04/18 00:05:37;;;;;;;2.47;2.27;;;12.80;40.10;;;;;;4987705;28;20645;-87
2022/04/18 00:08:03;;;;;;;5.53;2.83;;;12.70;40.30;;;;;;4974901;28;20197;-87
2022/04/18 00:10:29;;;;;;;4.13;2.78;;;12.70;40.40;;;;;;4975873;28;20296;-87
2022/04/18 00:12:55;;;;;;;3.58;2.80;;;12.70;40.70;;;;;;4961837;28;20204;-88
2022/04/18 00:15:20;;;;;;;7.50;2.73;;;12.60;41.30;;;;;;4975867;28;20259;-88
2022/04/18 00:17:46;;;;;;;3.80;2.30;;;12.60;41.70;;;;;;4974228;28;20560;-88
2022/04/18 00:20:12;;;;;;;3.70;2.30;;;12.60;41.10;;;;;;4973629;28;20264;-88
2022/04/18 00:22:38;;;;;;;8.13;3.23;;;12.60;41.10;;;;;;4958811;28;20172;-88
2022/04/18 00:25:04;;;;;;;2.40;2.20;;;12.50;41.60;;;;;;4974357;28;20191;-86
2022/04/18 00:27:29;;;;;;;3.95;3.08;;;12.40;41.80;;;;;;4977726;28;20180;-87
2022/04/18 00:29:55;;;;;;;3.57;2.87;;;12.40;42.00;;;;;;4980170;28;20242;-87
2022/04/18 00:32:21;;;;;;;6.03;2.73;;;12.50;41.80;;;;;;4984270;28;20283;-87
2022/04/18 00:34:47;;;;;;;3.22;2.30;;;12.50;41.50;;;;;;4968749;28;20415;-89
2022/04/18 00:37:13;;;;;;;4.77;2.87;;;12.50;41.40;;;;;;4984542;28;20532;-87
2022/04/18 00:39:39;;;;;;;4.03;2.60;;;12.50;41.50;;;;;;4983398;28;20467;-86
2022/04/18 00:42:05;;;;;;;6.57;2.30;;;12.40;41.70;;;;;;4978485;28;20430;-86
2022/04/18 00:44:31;;;;;;;2.60;2.10;;;12.40;41.70;;;;;;4973997;28;20420;-87
2022/04/18 00:46:56;;;;;;;2.47;2.10;;;12.30;42.30;;;;;;4973573;28;20428;-86
2022/04/18 00:49:22;;;;;;;3.20;2.90;;;12.30;41.90;;;;;;4972586;28;20797;-88
2022/04/18 00:51:48;;;;;;;2.90;2.30;;;12.30;42.00;;;;;;4975360;28;20211;-87
2022/04/18 00:54:14;;;;;;;4.75;2.40;;;12.20;42.50;;;;;;4976920;28;20606;-87
2022/04/18 00:56:40;;;;;;;4.32;3.00;;;12.00;42.80;;;;;;4977368;28;20191;-87
2022/04/18 00:59:07;;;;;;;3.15;2.30;;;12.20;42.60;;;;;;4977383;28;20212;-88
2022/04/18 01:01:32;;;;;;;4.35;2.75;;;12.20;42.20;;;;;;4997294;28;20538;-88
2022/04/18 01:03:58;;;;;;;3.60;2.50;;;12.20;42.10;;;;;;4981828;28;20194;-87
2022/04/18 01:06:24;;;;;;;3.60;2.33;;;12.10;42.30;;;;;;4992010;28;20186;-87
2022/04/18 01:08:50;;;;;;;4.33;2.33;;;12.00;42.50;;;;;;4991749;28;20195;-85
2022/04/18 01:11:16;;;;;;;4.72;2.85;;;11.80;43.00;;;;;;4992518;28;20443;-87
2022/04/18 01:13:50;;;;;;;3.00;2.53;;;11.70;43.60;;;;;;4992400;28;20180;-87
2022/04/18 01:16:16;;;;;;;2.80;2.13;;;11.70;43.90;;;;;;4986267;28;20670;-89
2022/04/18 01:18:42;;;;;;;3.90;2.40;;;11.70;44.40;;;;;;4977019;28;20216;-88
2022/04/18 01:21:09;;;;;;;3.90;2.42;;;11.70;44.40;;;;;;4977968;28;20203;-89
2022/04/18 01:23:35;;;;;;;2.55;2.30;;;11.80;44.10;;;;;;4978900;28;20262;-88
2022/04/18 01:28:58;;;;;;;4.82;2.78;;;11.70;44.20;;;;;;4967251;28;20190;-87
2022/04/18 01:31:31;;;;;;;5.32;2.88;;;11.50;44.80;;;;;;4972303;28;20235;-88
2022/04/18 01:33:57;;;;;;;3.35;2.25;;;11.40;45.40;;;;;;4976945;28;20267;-88
2022/04/18 01:36:24;;;;;;;4.25;2.10;;;11.50;45.50;;;;;;4978434;28;20263;-87
2022/04/18 01:38:50;;;;;;;3.50;2.85;;;11.60;45.40;;;;;;4976920;28;20212;-88
2022/04/18 01:41:15;;;;;;;3.43;2.20;;;11.50;45.50;;;;;;4977995;28;20300;-83
2022/04/18 01:43:42;;;;;;;3.00;2.10;;;11.50;45.00;;;;;;5001322;28;20223;-86
2022/04/18 01:46:07;;;;;;;3.75;2.20;;;11.50;45.00;;;;;;4978041;28;20536;-87
2022/04/18 01:48:33;;;;;;;2.83;2.00;;;11.50;45.10;;;;;;4991900;28;20191;-88
2022/04/18 01:50:59;;;;;;;6.40;2.70;;;11.30;45.70;;;;;;4976139;28;20218;-87
2022/04/18 01:53:26;;;;;;;3.13;2.20;;;11.30;46.20;;;;;;4993837;28;20569;-87
2022/04/18 01:55:54;;;;;;;2.78;2.03;;;11.40;46.40;;;;;;4979295;28;20251;-87
2022/04/18 01:58:20;;;;;;;3.83;2.67;;;11.50;45.90;;;;;;4976143;28;20222;-88
2022/04/18 02:00:46;;;;;;;3.13;2.60;;;11.60;45.00;;;;;;4977161;28;20203;-88
2022/04/18 02:03:11;;;;;;;4.37;2.63;;;11.60;44.70;;;;;;4971872;28;20436;-89
2022/04/18 02:05:37;;;;;;;3.87;2.50;;;11.60;44.70;;;;;;4972649;28;20208;-89
2022/04/18 02:08:06;;;;;;;3.03;2.30;;;11.30;45.10;;;;;;4959086;28;20549;-90
2022/04/18 02:10:32;;;;;;;5.95;2.33;;;11.10;45.70;;;;;;4974725;28;20519;-88
2022/04/18 02:12:59;;;;;;;5.33;3.40;;;11.20;46.00;;;;;;4975628;28;20643;-89
2022/04/18 02:15:25;;;;;;;3.70;2.30;;;11.40;45.60;;;;;;4977794;28;20195;-88
2022/04/18 02:17:51;;;;;;;2.67;2.35;;;11.40;45.50;;;;;;4978845;28;20185;-88
2022/04/18 02:20:16;;;;;;;3.43;2.50;;;11.40;45.40;;;;;;4960919;28;20211;-90
2022/04/18 02:22:42;;;;;;;4.00;2.33;;;11.40;45.40;;;;;;4975540;28;20424;-88
2022/04/18 02:25:08;;;;;;;5.47;3.10;;;11.30;45.40;;;;;;4992393;28;20419;-88
2022/04/18 02:27:34;;;;;;;7.00;2.60;;;11.20;45.40;;;;;;4992763;28;20260;-89
2022/04/18 02:30:00;;;;;;;2.90;2.60;;;11.20;45.30;;;;;;4992657;28;20219;-90
2022/04/18 02:35:12;;;;;;;2.58;2.22;;;11.10;45.40;;;;;;4979802;28;20215;-88
2022/04/18 02:37:38;;;;;;;2.35;2.00;;;11.00;45.70;;;;;;4994624;28;20602;-88
2022/04/18 02:40:06;;;;;;;2.73;2.20;;;10.80;46.10;;;;;;4978108;28;20280;-88
2022/04/18 02:42:32;;;;;;;4.00;2.10;;;10.70;46.50;;;;;;4992591;28;20416;-88
2022/04/18 02:44:58;;;;;;;4.03;2.30;;;10.90;46.40;;;;;;4990441;28;20779;-88
2022/04/18 02:47:23;;;;;;;2.67;2.20;;;10.80;46.50;;;;;;4987574;28;20967;-89
2022/04/18 02:49:52;;;;;;;3.70;2.80;;;10.80;46.50;;;;;;4989634;28;20451;-87
2022/04/18 02:52:18;;;;;;;3.53;2.95;;;10.70;46.80;;;;;;4975325;28;20276;-86
2022/04/18 02:54:44;;;;;;;3.65;2.22;;;10.80;46.70;;;;;;4977409;28;20401;-86
2022/04/18 02:57:11;;;;;;;2.63;2.40;;;10.90;46.80;;;;;;4979503;28;20212;-87
2022/04/18 02:59:38;;;;;;;4.05;2.33;;;10.80;47.70;;;;;;4983347;28;20242;-89
2022/04/18 03:02:04;;;;;;;4.35;2.15;;;10.70;47.20;;;;;;4986875;28;20187;-87
2022/04/18 03:04:30;;;;;;;4.88;2.38;;;10.60;47.30;;;;;;4986881;28;20176;-89
2022/04/18 03:06:55;;;;;;;4.00;2.67;;;10.50;47.70;;;;;;4989343;28;20614;-88
2022/04/18 03:09:21;;;;;;;3.53;2.30;;;10.50;48.20;;;;;;4988608;28;20188;-89
2022/04/18 03:11:47;;;;;;;2.93;2.50;;;10.60;48.10;;;;;;4990686;28;20214;-87
2022/04/18 03:14:12;;;;;;;4.07;2.40;;;10.70;47.80;;;;;;4991046;28;20187;-87
2022/04/18 03:16:38;;;;;;;3.87;2.70;;;10.80;47.30;;;;;;4993397;28;20246;-86
2022/04/18 03:19:04;;;;;;;2.60;2.40;;;10.70;47.30;;;;;;4979810;28;20222;-87
2022/04/18 03:21:34;;;;;;;3.63;2.33;;;10.70;47.00;;;;;;5008673;28;20571;-89
2022/04/18 03:23:59;;;;;;;3.25;2.15;;;10.70;47.00;;;;;;4999005;28;20242;-88
2022/04/18 03:26:25;;;;;;;3.77;2.60;;;10.60;46.90;;;;;;4961636;28;20545;-88
2022/04/18 03:28:51;;;;;;;3.07;2.50;;;10.50;46.80;;;;;;4964360;28;20230;-86
2022/04/18 03:31:16;;;;;;;3.37;2.50;;;10.50;47.10;;;;;;4976484;28;20769;-87
2022/04/18 03:33:42;;;;;;;2.27;2.07;;;10.40;47.20;;;;;;4975786;28;20179;-85
2022/04/18 03:41:36;;;;;;;4.45;2.40;;;10.20;47.20;;;;;;4979786;28;20214;-88
2022/04/18 03:44:02;;;;;;;2.60;2.40;;;10.20;47.30;;;;;;4995132;28;20588;-88
2022/04/18 03:46:28;;;;;;;3.00;2.50;;;10.10;47.80;;;;;;4995619;28;20180;-88
2022/04/18 03:48:54;;;;;;;3.40;2.20;;;10.10;48.00;;;;;;4978232;28;20427;-88
2022/04/18 03:51:19;;;;;;;5.00;2.60;;;10.10;48.70;;;;;;4975794;28;20204;-87
2022/04/18 03:53:45;;;;;;;3.50;2.50;;;10.20;48.20;;;;;;4979238;28;20430;-88
2022/04/18 03:56:11;;;;;;;3.07;2.70;;;10.20;48.70;;;;;;4981464;28;20175;-88
2022/04/18 03:58:36;;;;;;;4.83;2.40;;;10.20;48.20;;;;;;4974564;28;20558;-88
2022/04/18 04:01:02;;;;;;;2.10;1.90;;;10.20;48.10;;;;;;4977252;28;20708;-89
2022/04/18 04:03:28;;;;;;;3.27;2.63;;;10.20;48.10;;;;;;4977281;28;20204;-87
2022/04/18 04:05:53;;;;;;;3.50;2.83;;;10.10;48.40;;;;;;4962097;28;20189;-88
2022/04/18 04:08:23;;;;;;;5.00;2.57;;;10.10;48.60;;;;;;4977551;28;20483;-89
2022/04/18 04:10:52;;;;;;;5.82;2.75;;;10.00;48.70;;;;;;4977770;28;20227;-90
2022/04/18 04:13:18;;;;;;;2.75;2.55;;;9.80;49.10;;;;;;4981867;28;20238;-89
2022/04/18 04:15:43;;;;;;;3.20;2.80;;;9.60;49.60;;;;;;4995568;28;20191;-89
2022/04/18 04:18:09;;;;;;;3.60;3.00;;;9.80;49.70;;;;;;4992929;28;20467;-87
2022/04/18 04:20:35;;;;;;;3.40;2.53;;;9.90;49.50;;;;;;4994496;28;20955;-87
2022/04/18 04:23:01;;;;;;;5.40;3.17;;;9.90;49.60;;;;;;4992284;28;20869;-89
2022/04/18 04:25:27;;;;;;;3.47;2.80;;;9.90;49.50;;;;;;4979113;28;20176;-88
2022/04/18 04:27:52;;;;;;;2.50;2.30;;;9.90;49.70;;;;;;4994727;28;20215;-88
2022/04/18 04:30:18;;;;;;;2.40;2.20;;;9.90;49.40;;;;;;4992050;28;20212;-88
2022/04/18 04:32:50;;;;;;;3.23;2.43;;;9.90;49.20;;;;;;4991799;28;20676;-87
2022/04/18 04:35:17;;;;;;;6.05;3.03;;;9.80;49.20;;;;;;4991775;28;20171;-88
2022/04/18 04:37:43;;;;;;;3.38;2.90;;;9.70;49.60;;;;;;4992091;28;20184;-86
2022/04/18 04:40:09;;;;;;;3.53;2.90;;;9.70;49.80;;;;;;4992149;28;20219;-87
2022/04/18 04:42:36;;;;;;;3.60;2.95;;;9.80;49.80;;;;;;4991399;28;20508;-88
2022/04/18 04:45:02;;;;;;;3.15;2.85;;;10.00;49.40;;;;;;4992020;28;20187;-87
2022/04/18 04:47:27;;;;;;;3.17;2.87;;;10.00;49.00;;;;;;4976710;28;20258;-87
2022/04/18 04:49:53;;;;;;;3.23;2.37;;;10.10;48.80;;;;;;4991883;28;20534;-87
2022/04/18 04:52:22;;;;;;;4.77;2.90;;;10.10;48.80;;;;;;4974755;28;20506;-89
2022/04/18 04:54:49;;;;;;;3.38;2.50;;;10.00;48.90;;;;;;4993665;28;20652;-88
2022/04/18 04:57:15;;;;;;;4.93;2.65;;;9.90;48.90;;;;;;4993143;28;20188;-88
2022/04/18 04:59:41;;;;;;;3.53;2.40;;;9.90;49.10;;;;;;4991410;28;20218;-89
2022/04/18 05:02:07;;;;;;;6.50;3.20;;;9.90;49.20;;;;;;4990815;28;20258;-87
2022/04/18 05:04:32;;;;;;;4.00;3.03;;;9.70;49.50;;;;;;4990824;28;20180;-87
2022/04/18 05:06:58;;;;;;;4.40;3.03;;;9.60;49.90;;;;;;4991458;28;20826;-87
2022/04/18 05:09:24;;;;;;;3.73;2.50;;;9.60;50.40;;;;;;5002847;28;20212;-86
2022/04/18 05:11:50;;;;;;;5.43;3.07;;;9.50;50.70;;;;;;5008202;28;20218;-86
2022/04/18 05:14:16;;;;;;;3.20;2.90;;;9.60;50.50;;;;;;5005555;28;20791;-88
2022/04/18 05:16:42;;;;;;;6.03;2.73;;;9.70;50.30;;;;;;4992635;28;20455;-88
2022/04/18 05:19:07;;;;;;;5.50;3.10;;;9.80;49.90;;;;;;4991362;28;20474;-88
2022/04/18 05:21:33;;;;;;;4.50;2.70;;;10.00;49.70;;;;;;4995196;28;20494;-89
2022/04/18 05:23:59;;;;;;;4.13;2.60;;;10.20;49.30;;;;;;5001556;28;20507;-84
2022/04/18 05:26:24;;;;;;;5.30;2.43;;;10.50;48.50;;;;;;5013538;28;20183;-84
2022/04/18 05:28:50;;;;;;;5.33;2.87;;;10.50;48.20;;;;;;5000131;28;20176;-85
2022/04/18 05:31:17;;;;;;;3.80;2.80;;;10.50;48.00;;;;;;4996790;28;20227;-86
2022/04/18 05:33:43;;;;;;;5.72;3.00;;;10.70;47.70;;;;;;4993873;28;20176;-87
2022/04/18 05:36:09;;;;;;;3.70;3.30;;;11.10;47.80;;;;;;4988922;28;20219;-86
2022/04/18 05:38:35;;;;;;;5.30;2.93;;;11.90;45.40;;;;;;4992391;28;20211;-85
2022/04/18 05:41:01;;;;;;;3.90;3.50;;;12.90;43.10;;;;;;5013224;28;20576;-83
2022/04/18 05:43:28;;;;;;;5.28;3.45;;;13.60;40.90;;;;;;4996850;28;20196;-84
2022/04/18 05:45:54;;;;;;;4.45;3.40;;;15.00;39.00;;;;;;5014526;28;20251;-83
2022/04/18 05:48:20;;;;;;;3.30;3.00;;;15.90;35.80;;;;;;4999093;28;20176;-84
2022/04/18 05:50:46;;;;;;;3.90;3.23;;;16.00;34.50;;;;;;5014011;28;20268;-84
2022/04/18 05:53:12;;;;;;;3.85;3.00;;;16.40;34.00;;;;;;5014420;28;20180;-83
2022/04/18 05:55:38;;;;;;;6.65;2.72;;;17.20;33.00;;;;;;4998781;28;20223;-85
2022/04/18 05:58:04;;;;;;;5.67;3.20;;;17.50;31.20;;;;;;4998775;28;20200;-84
2022/04/18 06:01:14;;;;;;;2.70;2.50;;;18.20;30.90;;;;;;5014264;28;20451;-84
2022/04/18 06:03:40;;;;;;;3.93;2.67;;;19.20;30.00;;;;;;4997073;28;20207;-87
2022/04/18 06:06:06;;;;;;;4.60;2.87;;;19.20;30.00;;;;;;5000145;28;20842;-89
2022/04/18 06:08:31;;;;;;;2.87;2.33;;;19.40;30.00;;;;;;4992224;28;20419;-89
2022/04/18 06:10:57;;;;;;;3.10;2.43;;;19.40;30.00;;;;;;4976167;28;20246;-91
2022/04/18 06:13:23;;;;;;;3.40;2.80;;;19.90;30.00;;;;;;4991063;28;20219;-89
2022/04/18 06:15:52;;;;;;;3.67;2.60;;;20.10;30.00;;;;;;4976250;28;20176;-90
2022/04/18 06:18:18;;;;;;;4.60;2.97;;;20.10;30.00;;;;;;4975136;28;20216;-89
2022/04/18 06:20:45;;;;;;;5.13;2.90;;;20.20;30.00;;;;;;4975952;28;20435;-88
2022/04/18 06:23:11;;;;;;;3.50;3.20;;;20.00;30.00;;;;;;4990886;28;20475;-88
2022/04/18 06:25:37;;;;;;;2.47;2.27;;;19.70;30.00;;;;;;4994746;28;20419;-87
2022/04/18 06:28:03;;;;;;;5.83;3.33;;;19.40;30.00;;;;;;4974532;28;20176;-87
2022/04/18 06:30:28;;;;;;;4.03;3.03;;;19.40;30.00;;;;;;4989912;28;20211;-87
2022/04/18 06:32:54;;;;;;;3.50;3.17;;;19.40;30.00;;;;;;4973803;28;20989;-88
2022/04/18 06:35:20;;;;;;;4.13;2.93;;;19.70;30.00;;;;;;4990226;28;20288;-89
2022/04/18 06:37:51;;;;;;;3.23;2.93;;;19.50;30.00;;;;;;4990368;28;20238;-88
2022/04/18 06:40:17;;;;;;;5.30;3.50;;;19.50;30.00;;;;;;4990041;28;20195;-89
2022/04/18 06:42:42;;;;;;;3.13;2.80;;;19.70;30.00;;;;;;4989790;28;20927;-89
2022/04/18 06:45:08;;;;;;;3.93;2.90;;;20.00;30.00;;;;;;4975005;28;20419;-89
2022/04/18 06:47:34;;;;;;;4.03;3.00;;;20.40;30.00;;;;;;4990660;28;20210;-87
2022/04/18 06:50:00;;;;;;;5.97;3.50;;;21.10;30.00;;;;;;4989650;28;20447;-88
2022/04/18 06:52:26;;;;;;;3.00;2.70;;;20.40;30.00;;;;;;4990233;28;20179;-91
2022/04/18 06:54:52;;;;;;;5.50;3.40;;;20.40;30.00;;;;;;4974390;28;20438;-89
2022/04/18 06:57:18;;;;;;;3.27;2.97;;;20.40;30.00;;;;;;4973663;28;20548;-89
2022/04/18 06:59:45;;;;;;;4.37;3.00;;;20.10;30.00;;;;;;4991227;28;20207;-90
2022/04/18 07:02:11;;;;;;;4.30;3.13;;;19.30;30.00;;;;;;4992318;28;20203;-89
2022/04/18 07:04:37;;;;;;;5.27;3.57;;;18.90;30.00;;;;;;4995840;28;20431;-89
2022/04/18 07:07:05;;;;;;;4.97;2.80;;;18.80;30.00;;;;;;5010066;28;20168;-89
2022/04/18 07:09:31;;;;;;;5.53;2.58;;;17.90;32.10;;;;;;4986918;28;20199;-88
2022/04/18 07:11:57;;;;;;;4.17;2.80;;;17.20;34.60;;;;;;4995554;28;20558;-89
2022/04/18 07:14:24;;;;;;;3.20;2.90;;;16.90;38.70;;;;;;4996788;28;20446;-88
2022/04/18 07:16:49;;;;;;;3.45;2.63;;;17.10;35.60;;;;;;4990934;28;20187;-89
2022/04/18 07:19:15;;;;;;;3.90;3.07;;;16.90;35.70;;;;;;5016000;28;20215;-86
2022/04/18 07:21:43;;;;;;;3.83;3.20;;;16.90;34.90;;;;;;4996873;28;20207;-88
2022/04/18 07:24:10;;;;;;;4.43;3.22;;;16.70;35.30;;;;;;5000629;28;20179;-87
2022/04/18 07:26:36;;;;;;;3.85;2.55;;;16.70;33.50;;;;;;5010106;28;20194;-87
2022/04/18 07:29:02;;;;;;;3.08;2.70;;;16.60;34.90;;;;;;5005895;28;20187;-86
2022/04/18 07:31:28;;;;;;;3.10;2.80;;;16.50;36.60;;;;;;5004614;28;20230;-88
2022/04/18 07:33:53;;;;;;;2.70;2.37;;;16.70;34.30;;;;;;5016772;28;20179;-89
2022/04/18 07:36:19;;;;;;;3.00;2.23;;;16.60;36.10;;;;;;4998449;28;20236;-88
2022/04/18 07:38:51;;;;;;;7.33;2.70;;;16.60;35.50;;;;;;4997211;28;20219;-89
2022/04/18 07:41:35;;;;;;;3.50;2.60;;;16.70;36.30;;;;;;4997561;28;20256;-88
2022/04/18 07:44:01;;;;;;;5.03;3.03;;;16.80;34.30;;;;;;5012230;28;20180;-87
2022/04/18 07:46:27;;;;;;;4.25;2.50;;;16.80;35.80;;;;;;4989411;28;20259;-89
2022/04/18 07:48:53;;;;;;;4.63;2.60;;;16.80;35.90;;;;;;4989370;28;20163;-89
2022/04/18 07:51:32;;;;;;;7.13;2.50;;;16.80;35.70;;;;;;4996508;28;20455;-91
2022/04/18 07:53:58;;;;;;;3.40;2.60;;;16.80;37.10;;;;;;4965580;28;20172;-90
2022/04/18 07:56:25;;;;;;;4.60;3.00;;;17.00;35.50;;;;;;4977877;28;20195;-88
2022/04/18 07:58:52;;;;;;;2.45;2.25;;;17.00;36.50;;;;;;4980557;28;20264;-88
2022/04/18 08:01:19;;;;;;;3.47;2.60;;;17.00;35.80;;;;;;4981257;28;20200;-87
2022/04/18 08:03:46;;;;;;;2.95;2.30;;;17.00;34.30;;;;;;4973407;28;20260;-88
2022/04/18 08:06:12;;;;;;;2.58;2.13;;;17.20;32.50;;;;;;4961509;28;20275;-89
2022/04/18 08:08:38;;;;;;;2.85;2.65;;;17.20;31.30;;;;;;4961656;28;20184;-90
2022/04/18 08:11:04;;;;;;;2.87;2.53;;;17.20;31.20;;;;;;4958543;28;20196;-91
2022/04/18 08:13:30;;;;;;;3.53;1.92;;;17.10;31.00;;;;;;4963196;28;20416;-89
2022/04/18 08:15:57;;;;;;;4.05;2.75;;;17.00;31.90;;;;;;4980127;28;20173;-87
2022/04/18 08:18:23;;;;;;;3.10;2.80;;;16.80;31.70;;;;;;4982334;28;20208;-86
2022/04/18 08:20:49;;;;;;;3.63;2.60;;;16.90;31.60;;;;;;5000332;28;20265;-86
2022/04/18 08:23:16;;;;;;;5.57;2.92;;;17.00;31.60;;;;;;4999548;28;20404;-86
2022/04/18 08:25:42;;;;;;;2.87;2.53;;;16.90;32.60;;;;;;5016095;28;20176;-89
2022/04/18 08:28:08;;;;;;;3.53;2.47;;;17.00;32.30;;;;;;5015980;28;20175;-87
2022/04/18 08:30:34;;;;;;;3.33;2.40;;;17.00;31.60;;;;;;4990356;28;20275;-89
2022/04/18 08:32:59;;;;;;;6.03;3.08;;;17.10;31.70;;;;;;4959499;28;20184;-89
2022/04/18 08:35:26;;;;;;;3.03;2.47;;;17.30;31.30;;;;;;4978117;28;20281;-90
2022/04/18 08:37:52;;;;;;;3.00;2.67;;;17.20;31.80;;;;;;4994896;28;20176;-89
2022/04/18 08:40:18;;;;;;;4.30;2.97;;;17.20;30.90;;;;;;4995460;28;20215;-90
2022/04/18 08:42:44;;;;;;;4.78;2.45;;;17.20;31.00;;;;;;5011315;28;20184;-90
2022/04/18 08:45:12;;;;;;;3.00;2.67;;;17.10;30.60;;;;;;5014502;28;20195;-88
2022/04/18 08:53:11;;;;;;;4.10;2.83;;;17.00;30.60;;;;;;4994772;28;20166;-90
2022/04/18 08:55:37;;;;;;;5.90;3.35;;;17.10;31.40;;;;;;5004767;28;20222;-91
2022/04/18 08:58:06;;;;;;;3.37;2.60;;;17.20;31.90;;;;;;5010358;28;20167;-88
2022/04/18 09:00:32;;;;;;;5.05;2.80;;;17.30;32.00;;;;;;5025095;28;20468;-91
2022/04/18 09:02:58;;;;;;;5.40;3.30;;;17.30;31.30;;;;;;4997836;28;20183;-91
2022/04/18 09:05:24;;;;;;;3.83;2.80;;;17.20;31.40;;;;;;5000343;28;20426;-89
2022/04/18 09:08:01;;;;;;;6.05;2.65;;;17.20;31.60;;;;;;5002155;28;20426;-88
2022/04/18 09:10:28;;;;;;;2.70;2.47;;;17.30;31.40;;;;;;5013324;28;20254;-90
2022/04/18 09:13:06;;;;;;;3.55;3.25;;;17.30;31.90;;;;;;5019132;28;20179;-92
2022/04/18 09:15:38;;;;;;;2.10;1.90;;;17.30;32.10;;;;;;5020133;28;20183;-88
2022/04/18 09:18:09;;;;;;;2.85;2.35;;;17.40;30.80;;;;;;4997642;28;20175;-88
2022/04/18 09:20:53;;;;;;;4.20;2.47;;;17.30;30.70;;;;;;4998379;28;20207;-89
2022/04/18 09:23:20;;;;;;;3.53;2.40;;;17.30;31.10;;;;;;4997682;28;20175;-89
2022/04/18 09:25:46;;;;;;;3.85;3.03;;;17.30;30.70;;;;;;4997985;28;20182;-89
2022/04/18 09:28:13;;;;;;;5.00;2.83;;;17.10;30.00;;;;;;4995765;28;20180;-88
2022/04/18 09:30:39;;;;;;;4.82;3.15;;;17.10;30.80;;;;;;4995464;28;20695;-89
2022/04/18 09:33:07;;;;;;;3.33;2.60;;;17.20;30.20;;;;;;4996887;28;20191;-89
2022/04/18 09:35:33;;;;;;;3.20;2.53;;;17.20;30.40;;;;;;4996553;28;20509;-89
2022/04/18 09:38:02;;;;;;;6.28;2.90;;;17.30;30.60;;;;;;4979138;28;20702;-89
2022/04/18 09:40:30;;;;;;;4.38;2.55;;;17.40;30.60;;;;;;4997627;28;20659;-88
2022/04/18 09:42:57;;;;;;;2.85;2.47;;;17.50;30.00;;;;;;4996163;28;20183;-88
2022/04/18 09:45:23;;;;;;;3.45;2.22;;;17.50;30.70;;;;;;4995071;28;20178;-86
2022/04/18 09:48:02;;;;;;;4.28;2.70;;;17.60;30.50;;;;;;4994950;28;20179;-86
2022/04/18 09:53:27;;;;;;;3.22;2.88;;;17.50;30.00;;;;;;4984128;28;20546;-86
2022/04/18 09:55:55;;;;;;;2.85;2.30;;;17.40;30.40;;;;;;4976433;28;20175;-87
2022/04/18 09:58:21;;;;;;;2.63;2.42;;;17.40;30.80;;;;;;4976137;28;20203;-86
2022/04/18 10:00:48;;;;;;;3.20;2.58;;;17.50;30.90;;;;;;4977963;28;20196;-88
2022/04/18 10:03:14;;;;;;;3.17;2.53;;;17.60;31.20;;;;;;4958743;28;20180;-87
2022/04/18 10:05:40;;;;;;;3.20;2.37;;;17.70;30.00;;;;;;4978215;28;20182;-86
2022/04/18 10:08:06;;;;;;;3.15;2.45;;;17.60;30.00;;;;;;4977546;28;20791;-87
2022/04/18 10:10:34;;;;;;;3.92;2.92;;;17.60;30.00;;;;;;4976599;28;20659;-87
2022/04/18 10:13:01;;;;;;;2.65;2.45;;;17.60;30.00;;;;;;4975605;28;20187;-85
2022/04/18 10:15:27;;;;;;;3.47;2.75;;;17.70;30.00;;;;;;4976770;28;20182;-87
2022/04/18 10:17:53;;;;;;;2.85;2.50;;;17.60;30.00;;;;;;4969132;28;20180;-88
2022/04/18 10:20:40;;;;;;;2.57;2.20;;;17.70;30.00;;;;;;4977752;28;20254;-86
2022/04/18 10:23:15;;;;;;;3.72;2.67;;;17.60;30.00;;;;;;4991950;28;20419;-87
2022/04/18 10:26:19;;;;;;;2.97;2.70;;;17.60;30.00;;;;;;4991340;28;20190;-87
2022/04/18 10:28:48;;;;;;;3.72;2.83;;;17.70;30.00;;;;;;4994597;28;20187;-88
2022/04/18 10:31:23;;;;;;;3.35;3.05;;;17.60;30.00;;;;;;4966427;28;20216;-87
2022/04/18 10:33:49;;;;;;;12.73;4.10;;;17.60;30.00;;;;;;4978973;28;20184;-88
2022/04/18 10:36:31;;;;;;;7.15;3.92;;;17.50;30.00;;;;;;4976831;28;20185;-88
2022/04/18 10:39:01;;;;;;;4.25;3.85;;;17.50;30.00;;;;;;4962398;28;20192;-88
2022/04/18 10:41:32;;;;;;;4.55;3.40;;;17.50;30.00;;;;;;4977198;28;20200;-88
2022/04/18 10:44:01;;;;;;;10.93;7.65;;;17.40;30.00;;;;;;4981539;28;20184;-87
2022/04/18 10:46:28;;;;;;;4.32;3.40;;;17.50;30.00;;;;;;4981059;28;20180;-87
2022/04/18 10:48:56;;;;;;;3.33;3.03;;;17.50;30.00;;;;;;4970054;28;20184;-87
2022/04/18 10:51:30;;;;;;;7.72;5.75;;;17.40;30.00;;;;;;4985164;28;20204;-87
2022/04/18 10:54:22;;;;;;;3.83;2.58;;;17.60;30.00;;;;;;4983837;28;20188;-86
2022/04/18 10:57:03;;;;;;;5.85;2.40;;;17.70;30.00;;;;;;4982288;28;20617;-86
2022/04/18 10:59:32;;;;;;;4.20;3.80;;;17.70;30.00;;;;;;4976833;28;20230;-86
2022/04/18 11:02:01;;;;;;;3.55;2.55;;;17.80;30.00;;;;;;4979885;28;20211;-86
2022/04/18 11:04:53;;;;;;;2.75;2.55;;;17.80;30.00;;;;;;4988690;28;20244;-87
2022/04/18 11:07:19;;;;;;;5.82;3.25;;;17.70;30.00;;;;;;4981348;28;20183;-87
2022/04/18 11:09:46;;;;;;;4.70;3.73;;;17.60;30.00;;;;;;4998625;28;20192;-87
2022/04/18 11:12:20;;;;;;;2.50;2.30;;;17.80;30.00;;;;;;4993494;28;20204;-87
2022/04/18 11:15:17;;;;;;;4.18;2.40;;;17.90;30.00;;;;;;4978249;28;20179;-90
2022/04/18 11:17:43;;;;;;;3.33;2.25;;;17.80;30.00;;;;;;4981504;28;20244;-91
2022/04/18 11:20:35;;;;;;;8.25;2.13;;;17.80;30.00;;;;;;4972106;28;20216;-91
2022/04/18 11:23:21;;;;;;;2.90;2.60;;;17.40;29.90;;;;;;4971146;28;20180;-91
2022/04/18 11:26:01;;;;;;;2.97;2.58;;;17.70;30.00;;;;;;4973112;28;20715;-89
2022/04/18 11:28:44;;;;;;;3.40;2.80;;;17.90;30.00;;;;;;4961791;28;20546;-87
2022/04/18 11:31:29;;;;;;;2.42;2.13;;;17.90;30.00;;;;;;4978349;28;20231;-86
2022/04/18 11:34:01;;;;;;;4.32;2.70;;;18.00;30.00;;;;;;4960132;28;20169;-89
2022/04/18 11:36:28;;;;;;;6.07;2.30;;;18.10;30.00;;;;;;4989985;28;20194;-86
2022/04/18 11:39:05;;;;;;;4.18;2.20;;;18.30;30.00;;;;;;4978576;28;20195;-89
2022/04/18 11:41:31;;;;;;;2.50;2.30;;;18.50;30.00;;;;;;4973876;28;20226;-85
2022/04/18 11:43:58;;;;;;;2.63;2.40;;;18.50;30.00;;;;;;4974705;28;20180;-87
2022/04/18 11:46:29;;;;;;;3.35;2.08;;;18.60;30.00;;;;;;4974009;28;20188;-87
2022/04/18 11:48:55;;;;;;;3.45;2.30;;;18.60;30.00;;;;;;4997562;28;20204;-87
2022/04/18 11:51:38;;;;;;;4.60;2.50;;;18.20;30.00;;;;;;4990368;28;20280;-84
2022/04/18 11:54:04;;;;;;;3.72;3.38;;;18.20;30.00;;;;;;4958592;28;20203;-86
2022/04/18 11:56:29;;;;;;;4.63;2.80;;;18.30;30.00;;;;;;4988336;28;20602;-86
2022/04/18 11:58:55;;;;;;;3.43;3.10;;;18.50;30.00;;;;;;4998408;28;20199;-85
2022/04/18 12:06:50;;;;;;;3.95;2.30;;;18.70;30.00;;;;;;4961759;29;20237;-85
2022/04/18 12:09:23;;;;;;;3.47;2.63;;;18.80;30.00;;;;;;4968970;28;20181;-86
2022/04/18 12:11:50;;;;;;;3.33;2.55;;;18.80;30.00;;;;;;4975064;28;20193;-86
2022/04/18 12:14:18;;;;;;;2.30;1.95;;;18.80;29.90;;;;;;4985598;28;20193;-85
2022/04/18 12:16:44;;;;;;;2.90;2.70;;;18.80;30.00;;;;;;5000997;28;20283;-87
2022/04/18 12:19:15;;;;;;;2.90;2.60;;;18.80;29.90;;;;;;5002918;28;20245;-86
2022/04/18 12:21:42;;;;;;;4.55;3.22;;;18.70;29.90;;;;;;4998732;28;20206;-86
2022/04/18 12:24:08;;;;;;;3.95;2.92;;;18.80;29.90;;;;;;4997956;28;20645;-85
2022/04/18 12:26:34;;;;;;;3.40;2.47;;;18.60;29.90;;;;;;4998549;28;20169;-85
2022/04/18 12:29:06;;;;;;;5.82;2.25;;;18.70;30.00;;;;;;4980536;28;20188;-84
2022/04/18 12:31:32;;;;;;;4.40;2.45;;;18.90;29.90;;;;;;4996517;28;20274;-88
2022/04/18 12:33:59;;;;;;;2.55;2.35;;;19.10;30.00;;;;;;4995441;28;20830;-86
2022/04/18 12:36:36;;;;;;;2.40;2.20;;;19.20;29.90;;;;;;4981419;28;20184;-88
2022/04/18 12:39:06;;;;;;;6.80;3.20;;;19.20;29.90;;;;;;4986732;28;20235;-88
2022/04/18 12:41:38;;;;;;;3.15;2.55;;;19.20;29.90;;;;;;4986619;28;20203;-87
2022/04/18 12:44:27;;;;;;;4.35;2.38;;;19.10;29.90;;;;;;5011133;28;20234;-87
2022/04/18 12:46:54;;;;;;;4.55;2.30;;;18.90;29.90;;;;;;5001850;28;20255;-89
2022/04/18 12:49:25;;;;;;;2.78;2.58;;;18.80;29.90;;;;;;4998490;28;20523;-88
2022/04/18 12:51:54;;;;;;;3.45;2.75;;;18.80;29.90;;;;;;5007661;28;20854;-85
2022/04/18 12:54:26;;;;;;;2.83;2.10;;;19.00;30.00;;;;;;4984898;28;20186;-87
2022/04/18 12:56:52;;;;;;;4.70;2.58;;;19.20;29.90;;;;;;4982633;28;20164;-89
2022/04/18 12:59:30;;;;;;;3.47;2.58;;;19.20;29.90;;;;;;4986765;28;20581;-88
2022/04/18 13:02:08;;;;;;;2.40;1.73;;;19.30;29.90;;;;;;4998076;28;20266;-88
2022/04/18 13:04:37;;;;;;;3.78;2.55;;;19.30;30.00;;;;;;4981978;28;20542;-87
2022/04/18 13:07:07;;;;;;;2.33;2.00;;;19.40;30.00;;;;;;4982270;28;20239;-86
2022/04/18 13:09:33;;;;;;;4.10;2.00;;;19.50;30.00;;;;;;4997182;28;20195;-88
2022/04/18 13:12:09;;;;;;;3.33;2.10;;;19.60;29.90;;;;;;5005241;28;20187;-89
2022/04/18 13:14:54;;;;;;;2.10;1.90;;;19.50;29.90;;;;;;4969860;28;20191;-89
2022/04/18 13:17:34;;;;;;;6.10;2.85;;;19.40;29.90;;;;;;4957054;28;20181;-88